Arnesen, Minnesota
Current Conditions -  °F | °C
As of 2:34 AM on Sunday 23 Nov 2014 (Local Time) from KRRT Reporting Station
Overcast Overcast  
Wind Chill: 26°   Ceiling: 1400
Heat Index: 34°   Visibility: 7mi
Dew Point: 30°   Wind: 9mph
Humidity: 87%   Direction: 160°SSE
Pressure: 29.38"   Gusts: NA
Location:  48.6345°N, 95.1786°W
Report Text: KRRT 230834Z AUTO 16008KT 7SM OVC014 01/M01 A2938 RMK AO2
Loading
Personal Weather Stations






























Interactive Weather Map New forecast layout! Learn more

10-Day Weather Forecast

Advertisements
Track Severe Weather on mobile